Time;durP1;ratioP1;P1;durP2;ratioP2;P2;SDS_P1;SDS_P2;PMS_P1;PMS_P2;Temp;Humidity;BMP_temperature;BMP_pressure;BME280_temperature;BME280_humidity;BME280_pressure;Samples;Min_cycle;Max_cycle;Signal;HPM_P1;HPM_P2
2022/02/12 00:01:33;;;;;;;33.50;14.00;;;;;5.10;98065.80;;;;110541;1253;41927;-63
2022/02/12 00:04:03;;;;;;;24.40;10.90;;;;;5.20;98069.80;;;;110595;1251;41725;-65
2022/02/12 00:06:32;;;;;;;31.90;14.20;;;;;5.28;98079.80;;;;110519;1251;41954;-62
2022/02/12 00:09:02;;;;;;;34.20;14.00;;;;;5.30;98080.40;;;;110319;1253;41134;-63
2022/02/12 00:11:31;;;;;;;27.10;13.20;;;;;5.34;98081.40;;;;110578;1251;41174;-61
2022/02/12 00:14:01;;;;;;;24.40;12.70;;;;;5.40;98078.60;;;;110617;1251;41155;-60
2022/02/12 00:16:31;;;;;;;28.40;14.20;;;;;5.40;98093.00;;;;110595;1251;41168;-60
2022/02/12 00:19:00;;;;;;;27.30;13.10;;;;;5.38;98094.00;;;;110594;1253;41963;-60
2022/02/12 00:21:29;;;;;;;28.40;12.60;;;;;5.40;98099.00;;;;110574;1253;41904;-60
2022/02/12 00:24:00;;;;;;;27.50;12.40;;;;;5.40;98107.80;;;;110605;1251;41163;-59
2022/02/12 00:26:30;;;;;;;27.80;13.00;;;;;5.40;98112.00;;;;110613;1251;41165;-59
2022/02/12 00:29:01;;;;;;;24.40;13.00;;;;;5.32;98107.60;;;;110512;1251;41145;-61
2022/02/12 00:31:30;;;;;;;24.80;13.70;;;;;5.30;98115.00;;;;110540;1253;41257;-60
2022/02/12 00:34:00;;;;;;;24.10;12.60;;;;;5.20;98130.00;;;;110435;1253;41332;-60
2022/02/12 00:36:29;;;;;;;23.40;12.00;;;;;5.20;98135.60;;;;110638;1253;41258;-60
2022/02/12 00:38:59;;;;;;;25.60;12.70;;;;;5.20;98135.00;;;;110642;1251;41264;-64
2022/02/12 00:41:30;;;;;;;26.40;13.10;;;;;5.06;98126.20;;;;110472;1253;41854;-58
2022/02/12 00:44:00;;;;;;;23.90;10.90;;;;;5.00;98136.40;;;;110612;1251;41454;-67
2022/02/12 00:46:29;;;;;;;25.30;11.40;;;;;5.00;98138.20;;;;110551;1253;41659;-65
2022/02/12 00:48:59;;;;;;;20.60;10.50;;;;;4.92;98142.40;;;;110674;1253;41162;-60
2022/02/12 00:51:28;;;;;;;22.30;11.10;;;;;4.90;98139.80;;;;110551;1253;41159;-59
2022/02/12 00:53:57;;;;;;;21.00;9.60;;;;;4.90;98146.40;;;;110629;1250;41994;-60
2022/02/12 00:56:27;;;;;;;21.30;9.50;;;;;4.88;98146.60;;;;110605;1251;41403;-59
2022/02/12 00:58:56;;;;;;;17.30;8.60;;;;;4.80;98141.80;;;;110563;1253;41190;-60
2022/02/12 01:01:26;;;;;;;19.10;8.30;;;;;4.70;98142.00;;;;110805;1251;42662;-60
2022/02/12 01:03:55;;;;;;;16.30;8.30;;;;;4.80;98150.60;;;;110649;1251;41147;-59
2022/02/12 01:06:25;;;;;;;18.90;8.20;;;;;4.80;98152.00;;;;110549;1250;41249;-59
2022/02/12 01:08:55;;;;;;;14.80;6.40;;;;;4.80;98159.80;;;;110573;1253;41359;-57
2022/02/12 01:11:24;;;;;;;12.90;6.50;;;;;4.90;98158.60;;;;110684;1250;41240;-60
2022/02/12 01:13:55;;;;;;;14.10;6.50;;;;;4.90;98154.60;;;;110516;1253;41555;-60
2022/02/12 01:16:25;;;;;;;15.00;7.10;;;;;4.92;98150.40;;;;110810;1251;41728;-65
2022/02/12 01:18:54;;;;;;;15.10;6.70;;;;;4.90;98146.80;;;;110662;1250;41172;-60
2022/02/12 01:21:24;;;;;;;13.80;6.50;;;;;5.00;98141.60;;;;110684;1251;41372;-59
2022/02/12 01:23:55;;;;;;;12.00;5.50;;;;;5.00;98135.60;;;;110828;1250;41475;-59
2022/02/12 01:26:25;;;;;;;13.40;5.90;;;;;5.04;98126.20;;;;110580;1251;41946;-59
2022/02/12 01:28:55;;;;;;;13.50;5.60;;;;;5.10;98124.20;;;;110714;1250;41296;-66
2022/02/12 01:31:25;;;;;;;14.00;5.90;;;;;5.10;98126.00;;;;110566;1251;42129;-65
2022/02/12 01:33:54;;;;;;;11.30;5.60;;;;;5.10;98118.20;;;;110334;1251;41570;-65
2022/02/12 01:36:25;;;;;;;14.10;6.10;;;;;5.16;98123.00;;;;110797;1250;41182;-60
2022/02/12 01:38:55;;;;;;;12.60;5.50;;;;;5.20;98133.00;;;;110837;1250;41498;-64
2022/02/12 01:41:25;;;;;;;13.30;5.20;;;;;5.20;98133.80;;;;110832;1250;41152;-65
2022/02/12 01:43:57;;;;;;;12.60;5.70;;;;;5.28;98138.00;;;;110619;1253;41134;-66
2022/02/12 01:46:27;;;;;;;11.30;5.30;;;;;5.30;98140.20;;;;110534;1253;41142;-66
2022/02/12 01:48:58;;;;;;;11.20;5.00;;;;;5.30;98151.80;;;;110369;1253;41296;-66
2022/02/12 01:51:28;;;;;;;13.20;5.50;;;;;5.30;98158.40;;;;110562;1253;41150;-64
2022/02/12 01:53:57;;;;;;;13.00;6.30;;;;;5.30;98156.20;;;;110527;1253;41560;-61
2022/02/12 01:56:28;;;;;;;12.30;5.40;;;;;5.30;98154.80;;;;110587;1251;41142;-59
2022/02/12 01:58:58;;;;;;;10.80;5.10;;;;;5.34;98155.80;;;;110529;1253;41158;-61
2022/02/12 02:01:27;;;;;;;12.00;5.40;;;;;5.32;98149.80;;;;110562;1251;41181;-57
2022/02/12 02:03:58;;;;;;;11.90;5.20;;;;;5.32;98147.40;;;;110537;1253;41259;-64
2022/02/12 02:06:27;;;;;;;11.20;5.30;;;;;5.40;98156.20;;;;110639;1250;41160;-64
2022/02/12 02:08:59;;;;;;;11.20;5.20;;;;;5.40;98167.00;;;;110631;1251;41471;-60
2022/02/12 02:11:29;;;;;;;11.00;4.90;;;;;5.40;98167.20;;;;110512;1253;41281;-59
2022/02/12 02:13:58;;;;;;;11.30;5.10;;;;;5.40;98173.80;;;;110600;1251;41203;-59
2022/02/12 02:16:28;;;;;;;16.30;6.80;;;;;5.40;98179.20;;;;110551;1253;41643;-59
2022/02/12 02:18:58;;;;;;;12.60;6.20;;;;;5.14;98185.80;;;;110601;1253;41419;-59
2022/02/12 02:21:28;;;;;;;12.80;6.20;;;;;5.28;98192.80;;;;110582;1252;41157;-62
2022/02/12 02:23:58;;;;;;;13.50;6.30;;;;;5.30;98198.00;;;;110494;1253;41317;-67
2022/02/12 02:26:28;;;;;;;11.60;5.60;;;;;5.20;98194.20;;;;110500;1253;41148;-59
2022/02/12 02:28:58;;;;;;;16.10;5.70;;;;;5.20;98201.80;;;;110572;1253;41425;-60
2022/02/12 02:31:28;;;;;;;13.70;5.70;;;;;5.20;98212.20;;;;110561;1253;41166;-59
2022/02/12 02:33:58;;;;;;;13.00;6.20;;;;;5.20;98218.80;;;;110523;1252;41185;-58
2022/02/12 02:36:27;;;;;;;13.80;5.60;;;;;5.20;98223.40;;;;110602;1251;41594;-59
2022/02/12 02:39:00;;;;;;;15.50;7.30;;;;;5.20;98235.60;;;;110493;1253;41251;-57
2022/02/12 02:41:29;;;;;;;13.60;7.00;;;;;5.04;98242.40;;;;110655;1251;41601;-59
2022/02/12 02:44:01;;;;;;;13.70;6.00;;;;;5.10;98249.00;;;;110279;1251;449068;-59
2022/02/12 02:46:31;;;;;;;15.40;6.90;;;;;5.10;98255.20;;;;110486;1253;41176;-59
2022/02/12 02:49:03;;;;;;;14.90;7.50;;;;;5.08;98259.20;;;;110551;1251;41538;-65
2022/02/12 02:57:30;;;;;;;16.00;7.10;;;;;5.02;98258.00;;;;110138;1257;41166;-59
2022/02/12 03:00:01;;;;;;;13.90;7.00;;;;;4.96;98267.60;;;;110400;1253;41247;-59
2022/02/12 03:02:31;;;;;;;15.70;8.30;;;;;4.90;98275.00;;;;110519;1251;41500;-60
2022/02/12 03:05:00;;;;;;;16.00;7.10;;;;;4.68;98283.20;;;;110617;1252;41133;-60
2022/02/12 03:07:31;;;;;;;13.40;6.30;;;;;4.70;98294.20;;;;110351;1254;41286;-58
2022/02/12 03:10:03;;;;;;;12.70;5.60;;;;;4.80;98299.40;;;;110437;1254;42358;-59
2022/02/12 03:12:35;;;;;;;11.90;6.00;;;;;4.80;98306.80;;;;110608;1251;41684;-58
2022/02/12 03:15:06;;;;;;;13.40;6.30;;;;;4.82;98313.20;;;;110513;1253;41155;-58
2022/02/12 03:17:37;;;;;;;14.60;7.30;;;;;4.74;98315.40;;;;110557;1252;41171;-60
2022/02/12 03:20:07;;;;;;;12.10;5.70;;;;;4.62;98322.80;;;;110436;1251;41144;-60
2022/02/12 03:22:38;;;;;;;;;;;;;4.70;98330.00;;;;110761;1251;41194;-64
2022/02/12 03:25:08;;;;;;;13.90;5.90;;;;;4.68;98330.20;;;;110609;1251;41420;-65
2022/02/12 03:27:38;;;;;;;14.20;6.80;;;;;4.70;98329.40;;;;110631;1251;41604;-69
2022/02/12 03:30:09;;;;;;;13.60;6.30;;;;;4.54;98330.60;;;;110473;1253;41279;-61
2022/02/12 03:32:38;;;;;;;15.30;6.80;;;;;4.50;98336.40;;;;110490;1251;42300;-59
2022/02/12 03:35:08;;;;;;;12.60;6.20;;;;;4.50;98334.80;;;;110529;1252;41571;-58
2022/02/12 03:37:38;;;;;;;13.00;5.70;;;;;4.50;98336.20;;;;110629;1251;42363;-65
2022/02/12 03:40:11;;;;;;;13.00;6.40;;;;;4.44;98346.60;;;;110559;1253;41267;-62
2022/02/12 03:42:41;;;;;;;13.20;6.00;;;;;4.46;98344.40;;;;110718;1250;41168;-61
2022/02/12 03:45:10;;;;;;;12.20;5.90;;;;;4.40;98354.60;;;;110581;1250;41153;-65
2022/02/12 03:47:42;;;;;;;13.60;5.70;;;;;4.34;98360.60;;;;110557;1253;42389;-64
2022/02/12 03:50:12;;;;;;;14.90;6.60;;;;;4.30;98366.40;;;;110571;1251;41156;-62
2022/02/12 03:52:42;;;;;;;15.70;6.20;;;;;4.20;98367.60;;;;110753;1250;41946;-65
2022/02/12 03:55:12;;;;;;;12.80;5.10;;;;;4.20;98374.20;;;;110706;1250;41162;-65
2022/02/12 03:57:43;;;;;;;11.20;5.30;;;;;4.20;98374.20;;;;110654;1250;42678;-58
2022/02/12 04:00:13;;;;;;;14.80;6.10;;;;;4.10;98383.00;;;;110799;1250;41267;-59
2022/02/12 04:02:45;;;;;;;12.40;5.80;;;;;4.10;98383.20;;;;110691;1250;41610;-59
2022/02/12 04:05:16;;;;;;;13.80;6.00;;;;;4.10;98391.80;;;;110673;1251;41626;-66
2022/02/12 04:07:46;;;;;;;15.00;6.00;;;;;4.10;98393.20;;;;110539;1251;41151;-59
2022/02/12 04:10:17;;;;;;;14.00;6.30;;;;;4.06;98392.80;;;;110523;1253;41276;-60
2022/02/12 04:12:53;;;;;;;11.60;5.60;;;;;3.98;98382.00;;;;110675;1250;41276;-60
2022/02/12 04:15:27;;;;;;;12.50;5.70;;;;;3.88;98383.60;;;;110703;1250;42380;-59
2022/02/12 04:17:59;;;;;;;14.50;5.80;;;;;3.90;98388.80;;;;110574;1251;41830;-61
2022/02/12 04:20:29;;;;;;;12.00;5.50;;;;;3.90;98389.80;;;;110752;1250;41255;-63
2022/02/12 04:23:01;;;;;;;12.90;5.50;;;;;3.90;98394.80;;;;110548;1253;42453;-59
2022/02/12 04:25:32;;;;;;;12.10;5.40;;;;;3.90;98391.60;;;;110733;1251;41524;-58
2022/02/12 04:28:06;;;;;;;13.30;5.50;;;;;3.90;98395.00;;;;110685;1250;42282;-58
2022/02/12 04:30:38;;;;;;;11.60;5.80;;;;;3.90;98401.40;;;;110535;1251;41278;-58
2022/02/12 04:33:09;;;;;;;12.40;5.50;;;;;3.90;98403.60;;;;110727;1250;41136;-59
2022/02/12 04:35:39;;;;;;;13.10;5.40;;;;;3.88;98407.40;;;;110679;1250;41265;-60
2022/02/12 04:38:09;;;;;;;11.40;5.40;;;;;3.90;98417.40;;;;110704;1250;41141;-63
2022/02/12 04:40:38;;;;;;;12.60;5.70;;;;;3.90;98414.40;;;;110624;1250;41130;-64
2022/02/12 04:43:08;;;;;;;13.40;5.50;;;;;3.90;98419.80;;;;110629;1251;41440;-65
2022/02/12 04:45:38;;;;;;;10.30;4.80;;;;;3.90;98429.40;;;;110648;1251;42449;-67
2022/02/12 04:48:07;;;;;;;11.10;4.80;;;;;3.88;98436.80;;;;110682;1250;41319;-63
2022/02/12 04:50:37;;;;;;;14.20;5.20;;;;;3.86;98441.20;;;;110624;1253;41834;-59
2022/02/12 04:53:08;;;;;;;13.00;4.60;;;;;3.90;98439.80;;;;110632;1251;41250;-63
2022/02/12 04:55:37;;;;;;;10.10;4.50;;;;;3.90;98441.60;;;;110757;1250;41658;-58
2022/02/12 04:58:07;;;;;;;9.50;3.90;;;;;3.92;98445.40;;;;110791;1251;41301;-59
2022/02/12 05:00:37;;;;;;;13.00;5.50;;;;;4.00;98451.40;;;;110778;1251;41463;-59
2022/02/12 05:03:07;;;;;;;12.30;5.50;;;;;3.88;98445.60;;;;110621;1250;41389;-59
2022/02/12 05:05:37;;;;;;;13.00;5.60;;;;;3.88;98460.00;;;;110669;1249;41163;-59
2022/02/12 05:08:08;;;;;;;13.20;5.50;;;;;3.70;98476.00;;;;110808;1251;41730;-63
2022/02/12 05:10:39;;;;;;;11.40;5.50;;;;;3.56;98472.80;;;;110628;1251;42459;-63
2022/02/12 05:13:08;;;;;;;12.70;5.20;;;;;3.30;98477.60;;;;110597;1251;41154;-60
2022/02/12 05:15:38;;;;;;;14.00;5.60;;;;;3.44;98478.60;;;;110571;1253;41385;-64
2022/02/12 05:18:08;;;;;;;12.00;5.00;;;;;3.38;98484.00;;;;110666;1251;42358;-65
2022/02/12 05:20:39;;;;;;;11.50;5.40;;;;;3.30;98487.80;;;;110705;1251;42298;-64
2022/02/12 05:23:10;;;;;;;10.00;5.10;;;;;3.20;98494.20;;;;110879;1251;41143;-67
2022/02/12 05:25:41;;;;;;;9.90;4.20;;;;;3.20;98495.60;;;;110745;1250;41631;-59
2022/02/12 05:28:11;;;;;;;10.20;4.20;;;;;3.30;98502.40;;;;110633;1253;41253;-58
2022/02/12 05:30:43;;;;;;;11.30;4.90;;;;;3.26;98497.40;;;;110710;1250;41664;-65
2022/02/12 05:33:12;;;;;;;11.80;4.40;;;;;3.10;98502.60;;;;110792;1250;41143;-62
2022/02/12 05:35:43;;;;;;;9.60;4.10;;;;;3.10;98507.20;;;;110722;1251;41152;-62
2022/02/12 05:38:13;;;;;;;9.80;3.70;;;;;3.00;98512.80;;;;110796;1250;41150;-62
2022/02/12 05:40:45;;;;;;;11.20;4.20;;;;;3.00;98511.00;;;;110600;1253;41365;-65
2022/02/12 05:43:14;;;;;;;8.60;3.40;;;;;2.90;98511.40;;;;110401;1253;41624;-64
2022/02/12 05:45:44;;;;;;;9.30;3.70;;;;;2.90;98512.60;;;;110450;1253;41173;-63
2022/02/12 05:48:14;;;;;;;10.60;3.60;;;;;2.86;98527.20;;;;110327;1254;41743;-65
2022/02/12 05:50:43;;;;;;;7.70;3.40;;;;;2.80;98540.80;;;;110586;1251;41249;-58
2022/02/12 05:53:13;;;;;;;8.10;3.40;;;;;2.70;98540.20;;;;110626;1251;41454;-60
2022/02/12 05:55:42;;;;;;;8.70;3.70;;;;;2.60;98551.80;;;;110622;1253;41163;-64
2022/02/12 05:58:12;;;;;;;9.10;4.10;;;;;2.60;98556.60;;;;110579;1251;41655;-59
2022/02/12 06:00:42;;;;;;;7.60;3.40;;;;;2.60;98561.20;;;;110453;1254;41893;-58
2022/02/12 06:03:11;;;;;;;10.30;4.10;;;;;2.50;98565.60;;;;110449;1253;41518;-60
2022/02/12 06:05:40;;;;;;;9.90;3.70;;;;;2.50;98571.20;;;;110511;1253;41140;-59
2022/02/12 06:08:09;;;;;;;8.50;3.80;;;;;2.40;98577.80;;;;110425;1251;41149;-60
2022/02/12 06:10:40;;;;;;;9.50;3.80;;;;;2.36;98587.80;;;;110548;1251;41262;-59
2022/02/12 06:13:09;;;;;;;7.30;3.20;;;;;2.30;98593.20;;;;110514;1253;41570;-60
2022/02/12 06:15:39;;;;;;;8.30;3.20;;;;;2.30;98599.60;;;;110655;1250;41178;-59
2022/02/12 06:18:08;;;;;;;10.90;4.50;;;;;2.32;98598.20;;;;110747;1250;41989;-60
2022/02/12 06:20:37;;;;;;;8.30;3.40;;;;;2.18;98594.60;;;;110656;1251;41185;-64
2022/02/12 06:23:06;;;;;;;8.60;3.70;;;;;2.28;98587.40;;;;110476;1254;41208;-62
2022/02/12 06:25:36;;;;;;;7.80;3.30;;;;;2.20;98598.80;;;;110346;1254;41204;-66
2022/02/12 06:28:06;;;;;;;7.80;3.40;;;;;2.26;98596.00;;;;110565;1253;42149;-63
2022/02/12 06:30:35;;;;;;;9.20;3.60;;;;;2.30;98601.00;;;;110630;1251;41163;-59
2022/02/12 06:33:04;;;;;;;9.90;3.70;;;;;2.24;98610.40;;;;110587;1253;41146;-59
2022/02/12 06:35:34;;;;;;;8.70;3.60;;;;;2.20;98617.40;;;;110543;1252;41641;-59
2022/02/12 06:38:03;;;;;;;9.70;3.90;;;;;2.14;98621.00;;;;110590;1252;41601;-59
2022/02/12 06:40:33;;;;;;;9.80;4.50;;;;;2.12;98622.20;;;;110569;1251;41393;-59
2022/02/12 06:43:03;;;;;;;9.70;3.10;;;;;2.10;98627.60;;;;110534;1251;41154;-60
2022/02/12 06:45:34;;;;;;;8.20;3.30;;;;;2.20;98637.80;;;;110581;1251;41978;-64
2022/02/12 06:48:03;;;;;;;9.40;4.00;;;;;2.20;98643.60;;;;110581;1250;41520;-64
2022/02/12 06:50:33;;;;;;;7.70;3.40;;;;;2.30;98647.40;;;;110596;1252;41267;-63
2022/02/12 06:53:04;;;;;;;8.10;3.40;;;;;2.38;98649.20;;;;110651;1250;41250;-66
2022/02/12 06:55:33;;;;;;;8.50;3.40;;;;;2.44;98652.60;;;;110798;1251;41136;-65
2022/02/12 06:58:02;;;;;;;7.10;3.00;;;;;2.50;98655.60;;;;110661;1253;41163;-64
2022/02/12 07:00:31;;;;;;;8.00;2.80;;;;;2.68;98657.20;;;;110557;1250;41183;-59
2022/02/12 07:03:01;;;;;;;9.70;3.50;;;;;2.90;98658.40;;;;110764;1250;41356;-60
2022/02/12 07:05:30;;;;;;;7.00;3.20;;;;;3.00;98664.40;;;;110466;1252;41174;-59
2022/02/12 07:07:59;;;;;;;11.80;4.70;;;;;3.10;98665.60;;;;110776;1250;42178;-58
2022/02/12 07:10:31;;;;;;;12.50;5.00;;;;;2.84;98666.00;;;;110579;1252;41650;-59
2022/02/12 07:13:01;;;;;;;16.80;6.30;;;;;3.00;98668.40;;;;110555;1250;41369;-60
2022/02/12 07:15:31;;;;;;;16.70;6.60;;;;;3.10;98677.80;;;;110740;1250;41136;-58
2022/02/12 07:18:00;;;;;;;15.90;5.80;;;;;3.20;98685.60;;;;110581;1253;41680;-59
2022/02/12 07:20:29;;;;;;;18.40;7.00;;;;;3.22;98685.80;;;;110723;1250;41162;-59
2022/02/12 07:22:58;;;;;;;16.30;6.50;;;;;3.38;98692.60;;;;110452;1251;41927;-57
2022/02/12 07:25:29;;;;;;;11.60;5.50;;;;;3.50;98695.20;;;;110793;1250;41256;-59
2022/02/12 07:27:58;;;;;;;12.30;4.20;;;;;3.64;98695.00;;;;110561;1252;42654;-66
2022/02/12 07:30:28;;;;;;;9.80;3.80;;;;;3.70;98694.80;;;;110585;1253;41174;-63
2022/02/12 07:32:57;;;;;;;10.90;4.40;;;;;3.80;98697.80;;;;110885;1250;41149;-58
2022/02/12 07:35:26;;;;;;;8.20;3.50;;;;;4.00;98703.20;;;;110665;1250;42532;-64
2022/02/12 07:37:55;;;;;;;9.50;3.80;;;;;4.08;98701.60;;;;110430;1252;41199;-64
2022/02/12 07:40:24;;;;;;;12.40;5.60;;;;;4.28;98702.40;;;;110513;1253;41272;-64
2022/02/12 07:42:53;;;;;;;10.40;4.30;;;;;4.58;98707.80;;;;110570;1250;41297;-64
2022/02/12 07:45:24;;;;;;;10.70;4.60;;;;;4.90;98706.40;;;;110767;1250;42387;-61
2022/02/12 07:47:54;;;;;;;9.60;3.80;;;;;5.10;98711.00;;;;110558;1251;41146;-62
2022/02/12 07:50:23;;;;;;;8.20;3.50;;;;;4.90;98714.40;;;;110791;1250;41149;-59
2022/02/12 07:52:53;;;;;;;7.50;3.00;;;;;4.96;98719.40;;;;110617;1251;41132;-59
2022/02/12 07:55:22;;;;;;;11.60;3.10;;;;;4.78;98728.20;;;;110651;1251;41134;-59
2022/02/12 07:57:51;;;;;;;7.30;2.80;;;;;4.62;98723.80;;;;110545;1253;41187;-63
2022/02/12 08:00:20;;;;;;;10.00;4.30;;;;;4.58;98732.40;;;;110559;1253;41279;-59
2022/02/12 08:02:50;;;;;;;11.70;4.60;;;;;4.86;98733.00;;;;110559;1253;41154;-60
2022/02/12 08:05:20;;;;;;;8.50;3.50;;;;;5.00;98734.40;;;;110513;1252;41159;-60
2022/02/12 08:07:49;;;;;;;8.50;3.50;;;;;5.14;98733.80;;;;110740;1251;41520;-60
2022/02/12 08:13:06;;;;;;;9.90;4.40;;;;;5.88;98733.20;;;;110801;1250;41141;-62
2022/02/12 08:15:37;;;;;;;8.70;3.80;;;;;6.46;98731.80;;;;110665;1251;41567;-61
2022/02/12 08:18:06;;;;;;;8.20;3.30;;;;;7.02;98725.60;;;;110552;1253;41210;-60
2022/02/12 08:20:35;;;;;;;9.90;4.30;;;;;7.42;98731.60;;;;110612;1250;41720;-60
2022/02/12 08:23:05;;;;;;;8.70;3.60;;;;;8.14;98729.40;;;;110809;1250;41597;-59
2022/02/12 08:25:34;;;;;;;9.40;3.90;;;;;8.86;98735.00;;;;110631;1252;41376;-60
2022/02/12 08:28:03;;;;;;;7.80;3.40;;;;;9.72;98728.20;;;;110633;1252;41159;-64
2022/02/12 08:30:33;;;;;;;10.20;4.70;;;;;10.68;98730.20;;;;110728;1250;41794;-65
2022/02/12 08:33:02;;;;;;;7.10;2.90;;;;;11.22;98729.40;;;;110467;1251;41604;-65
2022/02/12 08:35:51;;;;;;;10.00;3.70;;;;;11.62;98744.40;;;;110696;1250;41899;-62
2022/02/12 08:38:20;;;;;;;10.70;4.40;;;;;12.44;98747.40;;;;110790;1250;41266;-65
2022/02/12 08:40:49;;;;;;;9.00;3.60;;;;;12.28;98746.60;;;;110737;1250;41327;-65
2022/02/12 08:43:18;;;;;;;11.70;5.30;;;;;12.80;98751.00;;;;110606;1253;41143;-67
2022/02/12 08:45:48;;;;;;;9.50;4.40;;;;;12.94;98750.80;;;;110612;1250;41946;-61
2022/02/12 08:48:17;;;;;;;8.10;3.50;;;;;13.16;98752.40;;;;110679;1251;41274;-60
2022/02/12 08:50:46;;;;;;;7.40;2.80;;;;;13.24;98751.40;;;;110593;1251;41153;-60
2022/02/12 08:53:16;;;;;;;9.10;3.40;;;;;12.32;98753.40;;;;110739;1250;41367;-59
2022/02/12 08:55:46;;;;;;;7.70;3.00;;;;;12.80;98758.00;;;;110798;1250;41685;-59
2022/02/12 08:58:15;;;;;;;7.20;3.20;;;;;13.12;98761.60;;;;110803;1250;41129;-62
2022/02/12 09:00:44;;;;;;;8.70;3.20;;;;;13.58;98750.80;;;;110772;1251;41374;-66
2022/02/12 09:03:16;;;;;;;7.90;2.80;;;;;15.10;98746.40;;;;110837;1250;41265;-65
2022/02/12 09:05:45;;;;;;;6.50;2.60;;;;;16.80;98751.40;;;;110703;1250;41142;-64
2022/02/12 09:08:14;;;;;;;8.30;2.60;;;;;19.34;98735.40;;;;110737;1250;41337;-65
2022/02/12 09:10:44;;;;;;;9.20;3.10;;;;;21.98;98733.20;;;;110645;1251;41611;-65
2022/02/12 09:13:13;;;;;;;6.70;2.70;;;;;23.38;98729.40;;;;110850;1250;41174;-66
2022/02/12 09:15:42;;;;;;;6.10;2.50;;;;;22.60;98739.40;;;;110546;1252;41985;-60
2022/02/12 09:18:11;;;;;;;6.50;2.60;;;;;24.84;98753.20;;;;110758;1250;41919;-60
2022/02/12 09:20:40;;;;;;;7.20;3.00;;;;;24.12;98758.00;;;;110814;1250;41726;-60
2022/02/12 09:23:09;;;;;;;7.70;2.60;;;;;22.04;98753.00;;;;110786;1250;41203;-61
2022/02/12 09:25:39;;;;;;;7.40;2.80;;;;;23.28;98752.60;;;;110584;1251;41236;-60
2022/02/12 09:28:08;;;;;;;6.20;2.50;;;;;23.02;98779.60;;;;110568;1253;41766;-60
2022/02/12 09:30:38;;;;;;;6.90;2.80;;;;;21.84;98768.60;;;;110774;1250;41617;-59
2022/02/12 09:33:10;;;;;;;6.70;2.70;;;;;23.84;98771.40;;;;110776;1251;41186;-59
2022/02/12 09:35:53;;;;;;;;;;;;;25.98;98766.60;;;;110711;1252;41356;-61
2022/02/12 09:38:24;;;;;;;5.20;2.20;;;;;28.30;98775.40;;;;110816;1250;41272;-59
2022/02/12 09:40:53;;;;;;;;;;;;;29.88;98764.40;;;;110792;1250;41145;-63
2022/02/12 09:43:28;;;;;;;8.30;3.50;;;;;30.00;98772.60;;;;110829;1252;42257;-65
2022/02/12 09:46:19;;;;;;;5.00;2.20;;;;;25.74;98783.60;;;;110757;1250;41172;-63
2022/02/12 09:48:50;;;;;;;6.80;2.50;;;;;24.08;98797.40;;;;110853;1250;41150;-59
2022/02/12 09:51:19;;;;;;;;;;;;;23.90;98785.60;;;;110585;1250;41183;-59
2022/02/12 09:53:49;;;;;;;5.60;2.10;;;;;23.50;98782.00;;;;110665;1250;42245;-60
2022/02/12 09:56:19;;;;;;;5.50;2.10;;;;;24.50;98774.40;;;;110864;1250;41253;-58
2022/02/12 09:58:49;;;;;;;7.30;2.40;;;;;26.54;98768.60;;;;110523;1252;42665;-61
2022/02/12 10:01:19;;;;;;;;;;;;;28.70;98760.40;;;;110547;1251;41650;-64
2022/02/12 10:03:52;;;;;;;22.60;12.80;;;;;30.32;98754.00;;;;110741;1250;41676;-66
2022/02/12 10:06:42;;;;;;;8.50;3.70;;;;;31.22;98756.00;;;;110565;1253;41309;-62
2022/02/12 10:09:11;;;;;;;6.60;2.40;;;;;32.56;98755.40;;;;110589;1253;42488;-65
2022/02/12 10:11:43;;;;;;;5.40;2.00;;;;;33.78;98759.00;;;;110820;1253;41611;-65
2022/02/12 10:14:16;;;;;;;4.60;1.80;;;;;34.74;98754.40;;;;110809;1250;41608;-66
2022/02/12 10:16:51;;;;;;;4.90;2.00;;;;;35.34;98755.60;;;;110549;1253;41136;-60
2022/02/12 10:19:29;;;;;;;5.10;2.00;;;;;35.60;98754.20;;;;110514;1253;41850;-62
2022/02/12 10:22:04;;;;;;;4.80;2.00;;;;;35.96;98767.40;;;;110668;1252;41452;-66
2022/02/12 10:24:58;;;;;;;3.60;1.70;;;;;34.04;98756.20;;;;110617;1253;41052;-66
2022/02/12 10:27:27;;;;;;;5.60;2.20;;;;;33.82;98757.40;;;;110403;1253;41261;-64
2022/02/12 10:30:01;;;;;;;6.10;2.00;;;;;33.50;98760.60;;;;110431;1252;41185;-66
2022/02/12 10:32:31;;;;;;;4.60;1.90;;;;;33.06;98777.60;;;;110866;1251;41152;-65
2022/02/12 10:35:09;;;;;;;5.80;2.10;;;;;31.06;98782.60;;;;110740;1252;41152;-67
2022/02/12 10:37:42;;;;;;;3.60;1.90;;;;;29.34;98794.60;;;;110482;1252;41178;-67
2022/02/12 10:40:12;;;;;;;5.60;2.20;;;;;29.18;98774.20;;;;110668;1250;41166;-65
2022/02/12 10:42:44;;;;;;;4.70;1.90;;;;;29.26;98768.80;;;;110751;1250;41310;-62
2022/02/12 10:45:18;;;;;;;6.80;2.10;;;;;30.90;98760.40;;;;110840;1251;41145;-62
2022/02/12 10:47:49;;;;;;;6.30;2.30;;;;;33.16;98756.00;;;;110731;1250;41306;-61
2022/02/12 10:50:19;;;;;;;6.70;1.90;;;;;29.10;98761.00;;;;110680;1251;41619;-60
2022/02/12 10:52:51;;;;;;;5.40;2.10;;;;;31.82;98758.60;;;;110625;1251;41331;-61
2022/02/12 10:55:34;;;;;;;4.50;2.00;;;;;32.68;98760.60;;;;110736;1250;41249;-60
2022/02/12 10:58:09;;;;;;;6.50;2.10;;;;;33.70;98764.20;;;;110777;1250;41264;-60
2022/02/12 11:00:40;;;;;;;4.80;1.90;;;;;33.82;98768.00;;;;110625;1252;41270;-61
2022/02/12 11:03:12;;;;;;;4.10;1.70;;;;;34.98;98766.00;;;;110804;1250;41611;-61
2022/02/12 11:05:46;;;;;;;4.50;1.90;;;;;33.56;98768.60;;;;110604;1253;42125;-65
2022/02/12 11:08:15;;;;;;;4.30;1.80;;;;;29.02;98786.20;;;;110520;1253;41602;-60
2022/02/12 11:10:44;;;;;;;4.70;1.90;;;;;31.40;98780.60;;;;110465;1253;42389;-61
2022/02/12 11:13:14;;;;;;;4.50;1.80;;;;;31.12;98802.80;;;;110588;1250;41138;-65
2022/02/12 11:15:43;;;;;;;5.30;2.00;;;;;28.18;98807.00;;;;110832;1250;41601;-65
2022/02/12 11:18:17;;;;;;;4.10;1.80;;;;;26.46;98816.20;;;;110546;1253;41141;-64
2022/02/12 11:20:47;;;;;;;5.90;2.00;;;;;26.98;98794.20;;;;110749;1250;42033;-66
2022/02/12 11:23:24;;;;;;;5.20;2.10;;;;;26.90;98812.00;;;;110381;1253;41143;-65
2022/02/12 11:26:04;;;;;;;4.00;1.70;;;;;20.00;98825.60;;;;110419;1253;41448;-66
2022/02/12 11:28:36;;;;;;;4.60;1.90;;;;;22.80;98825.20;;;;110593;1252;41523;-64
2022/02/12 11:31:28;;;;;;;5.30;1.90;;;;;21.86;98824.00;;;;110580;1253;41940;-64
2022/02/12 11:34:12;;;;;;;4.00;1.80;;;;;20.52;98805.80;;;;110511;1252;41637;-61
2022/02/12 11:36:42;;;;;;;6.40;2.20;;;;;20.68;98821.80;;;;110700;1252;41156;-62
2022/02/12 11:39:13;;;;;;;4.90;1.90;;;;;17.88;98840.80;;;;110401;1253;41539;-62
2022/02/12 11:41:46;;;;;;;4.70;1.80;;;;;16.88;98841.00;;;;110814;1250;41842;-62
2022/02/12 11:44:42;;;;;;;5.30;2.20;;;;;16.28;98841.20;;;;110500;1252;42136;-66
2022/02/12 11:47:12;;;;;;;4.90;1.80;;;;;15.56;98840.60;;;;110626;1252;41274;-66
2022/02/12 11:49:48;;;;;;;4.80;2.00;;;;;14.66;98845.20;;;;110758;1251;41275;-62
2022/02/12 11:52:17;;;;;;;8.30;2.20;;;;;14.00;98847.00;;;;110524;1252;41158;-62
2022/02/12 11:54:56;;;;;;;4.50;1.90;;;;;14.78;98817.60;;;;110502;1252;41386;-60
2022/02/12 11:57:25;;;;;;;4.90;2.00;;;;;18.48;98799.80;;;;110676;1251;41573;-60
2022/02/12 11:59:57;;;;;;;4.70;1.90;;;;;22.06;98792.80;;;;110699;1253;41152;-59
2022/02/12 12:02:45;;;;;;;3.90;1.90;;;;;24.08;98794.80;;;;110727;1251;42059;-60
2022/02/12 12:05:24;;;;;;;6.60;1.80;;;;;25.88;98814.60;;;;110450;1252;41198;-60
2022/02/12 12:08:15;;;;;;;5.70;2.00;;;;;24.54;98803.80;;;;110687;1252;41931;-63
2022/02/12 12:10:48;;;;;;;2.90;1.40;;;;;24.30;98813.00;;;;110662;1251;41153;-61
2022/02/12 12:13:20;;;;;;;5.40;2.10;;;;;21.94;98825.00;;;;110550;1252;41257;-59
2022/02/12 12:15:51;;;;;;;4.20;1.70;;;;;20.98;98815.40;;;;110714;1252;41753;-63
2022/02/12 12:18:21;;;;;;;3.60;1.70;;;;;21.10;98833.40;;;;110662;1252;41904;-58
2022/02/12 12:20:50;;;;;;;5.30;2.10;;;;;20.42;98834.20;;;;110739;1250;41981;-60
2022/02/12 12:23:22;;;;;;;5.60;2.10;;;;;19.64;98815.20;;;;110486;1253;41187;-59
2022/02/12 12:25:53;;;;;;;5.10;1.90;;;;;21.16;98801.40;;;;110718;1252;41865;-58
2022/02/12 12:28:40;;;;;;;4.10;1.90;;;;;23.02;98813.40;;;;110438;1253;41263;-67
2022/02/12 12:31:11;;;;;;;4.50;1.90;;;;;23.10;98823.60;;;;110601;1251;41145;-59
2022/02/12 12:33:46;;;;;;;4.40;1.70;;;;;21.94;98819.40;;;;110551;1253;41164;-60
2022/02/12 12:36:20;;;;;;;3.90;1.70;;;;;23.76;98806.40;;;;110721;1251;41181;-65
2022/02/12 12:38:50;;;;;;;4.80;1.90;;;;;25.72;98797.60;;;;110713;1252;41906;-65